83TX weather

Texas A And M Flight Test Station Airport
Bryan, Texas, United States

Public forecast

Using degrees Fahrenheit for public forecast. Weather courtesy of forecast.io.

METAR (pilot weather report)

Closest report is Easterwood Field, 6.8 nm (12.5 km) ESE. Retrieved 2019/07/18 21:53 UTC (44 minutes ago):

KCLL 182153Z 16013KT 10SM FEW070 35/23 A2994 RMK AO2 SLP131 T03500228

TAF (pilot weather forecast)

Closest forecast is Easterwood Field, 6.8 nm (12.5 km) ESE. Retrieved 2019/07/18 18:22 UTC (4 hours ago):

TAF KCLL 181720Z 1818/1918 18013KT P6SM SCT045 FM190000 17011KT P6SM SCT250 FM190900 17005KT P6SM BKN015 FM191500 18011KT P6SM FEW015 SCT035